Time;durP1;ratioP1;P1;durP2;ratioP2;P2;SDS_P1;SDS_P2;PMS_P1;PMS_P2;Temp;Humidity;BMP_temperature;BMP_pressure;BME280_temperature;BME280_humidity;BME280_pressure;Samples;Min_cycle;Max_cycle;Signal;HPM_P1;HPM_P2
2022/07/05 00:02:22;;;;;;;7.70;2.17;;;18.90;88.30;;;;;;6223139;23;20004;-87
2022/07/05 00:04:50;;;;;;;2.67;1.50;;;18.90;88.80;;;;;;6198090;23;20555;-85
2022/07/05 00:07:18;;;;;;;4.05;1.50;;;18.90;88.80;;;;;;6225291;23;20009;-87
2022/07/05 00:09:46;;;;;;;6.13;2.20;;;18.80;88.80;;;;;;6198325;23;20005;-86
2022/07/05 00:12:13;;;;;;;3.42;1.50;;;18.80;88.90;;;;;;6198004;23;20039;-87
2022/07/05 00:14:39;;;;;;;3.90;1.60;;;18.80;89.20;;;;;;6227557;23;20027;-84
2022/07/05 00:17:05;;;;;;;3.85;1.70;;;18.70;89.30;;;;;;6201264;23;19999;-86
2022/07/05 00:19:31;;;;;;;5.18;1.42;;;18.70;89.80;;;;;;6230654;23;20000;-85
2022/07/05 00:21:57;;;;;;;2.33;1.63;;;18.70;90.10;;;;;;6232215;23;20008;-84
2022/07/05 00:24:24;;;;;;;4.25;1.58;;;18.60;90.40;;;;;;6230228;23;20004;-85
2022/07/05 00:26:50;;;;;;;4.97;1.70;;;18.50;90.30;;;;;;6202182;23;20096;-84
2022/07/05 00:29:18;;;;;;;3.15;1.30;;;18.50;90.60;;;;;;6225207;23;20004;-81
2022/07/05 00:31:47;;;;;;;3.92;1.77;;;18.50;90.60;;;;;;6223509;23;20017;-85
2022/07/05 00:34:13;;;;;;;4.00;1.60;;;18.50;90.60;;;;;;6225726;23;20015;-86
2022/07/05 00:36:39;;;;;;;30.25;10.73;;;18.50;90.70;;;;;;6222060;23;20001;-84
2022/07/05 00:39:05;;;;;;;3.78;1.77;;;18.50;90.90;;;;;;6222585;23;20064;-85
2022/07/05 00:41:31;;;;;;;21.80;8.68;;;18.40;90.90;;;;;;6223408;23;20004;-87
2022/07/05 00:44:00;;;;;;;2.30;1.30;;;18.40;91.10;;;;;;6225211;23;20001;-87
2022/07/05 00:46:26;;;;;;;9.43;3.53;;;18.40;91.20;;;;;;6173431;23;20387;-86
2022/07/05 00:48:52;;;;;;;5.97;1.55;;;18.30;91.50;;;;;;6197177;23;20019;-87
2022/07/05 00:51:18;;;;;;;3.63;1.40;;;18.30;91.70;;;;;;6196754;23;20008;-84
2022/07/05 00:53:44;;;;;;;4.07;1.40;;;18.30;91.80;;;;;;6197295;23;20016;-87
2022/07/05 00:56:11;;;;;;;5.47;1.70;;;18.30;92.00;;;;;;6220494;23;20068;-87
2022/07/05 00:58:37;;;;;;;3.50;1.55;;;18.20;92.10;;;;;;6197636;23;19997;-88
2022/07/05 01:01:05;;;;;;;2.00;1.50;;;18.20;92.20;;;;;;6197280;23;20001;-88
2022/07/05 01:03:32;;;;;;;5.75;1.73;;;18.10;92.50;;;;;;6225852;23;20008;-88
2022/07/05 01:06:00;;;;;;;2.33;1.30;;;18.10;92.60;;;;;;6198002;23;20004;-86
2022/07/05 01:08:27;;;;;;;4.05;1.90;;;18.10;92.70;;;;;;6222538;23;20000;-87
2022/07/05 01:10:54;;;;;;;10.48;4.30;;;18.00;92.90;;;;;;6220444;23;20008;-86
2022/07/05 01:13:21;;;;;;;4.55;1.65;;;18.00;93.00;;;;;;6196454;23;20008;-88
2022/07/05 01:15:48;;;;;;;2.83;1.30;;;18.00;93.20;;;;;;6222726;23;20012;-85
2022/07/05 01:18:14;;;;;;;3.53;1.60;;;18.00;93.30;;;;;;6196231;23;20031;-86
2022/07/05 01:20:41;;;;;;;2.72;1.70;;;17.90;93.40;;;;;;6196229;23;20459;-87
2022/07/05 01:23:07;;;;;;;2.90;1.35;;;17.90;93.50;;;;;;6223635;23;20008;-87
2022/07/05 01:25:33;;;;;;;6.90;2.28;;;17.90;93.70;;;;;;6194974;23;20020;-87
2022/07/05 01:28:00;;;;;;;4.00;1.35;;;17.80;93.90;;;;;;6194611;23;20043;-89
2022/07/05 01:30:26;;;;;;;3.47;1.50;;;17.70;94.20;;;;;;6193787;23;20536;-89
2022/07/05 01:32:52;;;;;;;2.97;1.30;;;17.70;94.30;;;;;;6220014;23;20008;-87
2022/07/05 01:35:23;;;;;;;4.70;1.63;;;17.70;94.50;;;;;;6221898;23;20001;-85
2022/07/05 01:37:50;;;;;;;4.63;1.52;;;17.70;94.70;;;;;;6194954;23;20000;-88
2022/07/05 01:40:17;;;;;;;2.35;1.30;;;17.70;94.80;;;;;;6219386;23;20445;-89
2022/07/05 01:42:43;;;;;;;1.90;1.17;;;17.70;94.90;;;;;;6224923;23;20015;-88
2022/07/05 01:45:09;;;;;;;2.78;1.38;;;17.60;95.20;;;;;;6202903;23;20020;-87
2022/07/05 01:47:38;;;;;;;4.05;1.70;;;17.60;95.40;;;;;;6209876;23;20000;-85
2022/07/05 01:50:07;;;;;;;2.55;1.23;;;17.50;95.50;;;;;;6231053;23;20395;-86
2022/07/05 01:52:36;;;;;;;5.00;1.60;;;17.50;96.20;;;;;;6225497;23;20440;-88
2022/07/05 01:55:03;;;;;;;3.23;1.30;;;17.40;96.30;;;;;;6226018;23;20016;-89
2022/07/05 01:57:29;;;;;;;2.70;1.60;;;17.40;96.30;;;;;;6225854;23;19996;-83
2022/07/05 01:59:55;;;;;;;3.33;1.40;;;17.30;96.60;;;;;;6223983;23;20007;-86
2022/07/05 02:02:20;;;;;;;3.95;1.65;;;17.30;96.80;;;;;;6225870;23;20007;-85
2022/07/05 02:04:46;;;;;;;3.13;1.38;;;17.30;97.00;;;;;;6225307;23;20013;-88
2022/07/05 02:07:12;;;;;;;3.53;1.35;;;17.20;97.20;;;;;;6226231;23;20009;-83
2022/07/05 02:09:38;;;;;;;3.60;1.33;;;17.20;97.40;;;;;;6227743;23;20024;-90
2022/07/05 02:12:04;;;;;;;3.60;1.10;;;17.30;97.40;;;;;;6226372;23;20019;-84
2022/07/05 02:14:31;;;;;;;3.08;1.40;;;17.20;97.60;;;;;;6227812;23;20009;-90
2022/07/05 02:16:57;;;;;;;2.50;1.15;;;17.20;97.90;;;;;;6201132;23;20064;-88
2022/07/05 02:19:23;;;;;;;3.28;1.33;;;17.10;98.30;;;;;;6224444;23;20511;-89
2022/07/05 02:21:49;;;;;;;4.25;1.75;;;17.00;98.40;;;;;;6200006;23;20001;-87
2022/07/05 02:24:15;;;;;;;3.08;1.65;;;17.00;98.60;;;;;;6225120;23;20005;-90
2022/07/05 02:26:41;;;;;;;2.47;1.20;;;17.00;98.90;;;;;;6225852;23;20082;-89
2022/07/05 02:29:07;;;;;;;2.22;1.20;;;16.90;99.30;;;;;;6226302;23;20011;-88
2022/07/05 02:31:33;;;;;;;3.35;1.30;;;16.90;99.50;;;;;;6200130;23;20013;-89
2022/07/05 02:33:59;;;;;;;2.08;1.27;;;16.90;99.60;;;;;;6225108;23;20005;-85
2022/07/05 02:36:25;;;;;;;2.08;1.20;;;17.40;99.90;;;;;;6225652;23;20054;-86
2022/07/05 02:38:50;;;;;;;2.65;1.23;;;16.90;99.90;;;;;;6199475;23;20001;-88
2022/07/05 02:41:16;;;;;;;2.80;1.25;;;16.80;99.90;;;;;;6224824;23;20028;-87
2022/07/05 02:43:42;;;;;;;2.45;1.20;;;16.80;99.90;;;;;;6200288;23;20103;-85
2022/07/05 02:46:09;;;;;;;2.65;1.33;;;16.80;99.90;;;;;;6226464;23;20008;-86
2022/07/05 02:48:36;;;;;;;3.42;1.50;;;16.70;99.90;;;;;;6226742;23;20075;-86
2022/07/05 02:51:02;;;;;;;2.65;1.20;;;16.70;99.90;;;;;;6199660;23;20035;-86
2022/07/05 02:53:28;;;;;;;4.35;1.40;;;16.60;99.90;;;;;;6174409;23;20050;-87
2022/07/05 02:55:55;;;;;;;2.40;1.30;;;16.60;99.90;;;;;;6225043;23;20441;-88
2022/07/05 02:58:21;;;;;;;2.25;1.40;;;16.60;99.90;;;;;;6199011;23;20005;-88
2022/07/05 03:00:48;;;;;;;3.15;1.10;;;16.50;99.90;;;;;;6199598;23;20020;-86
2022/07/05 03:03:15;;;;;;;2.75;1.15;;;16.50;99.90;;;;;;6223399;23;20064;-87
2022/07/05 03:05:40;;;;;;;1.60;1.00;;;16.50;99.90;;;;;;6200462;23;20001;-89
2022/07/05 03:08:07;;;;;;;4.20;1.35;;;16.50;99.90;;;;;;6225620;23;20012;-87
2022/07/05 03:10:33;;;;;;;2.72;1.20;;;16.50;99.90;;;;;;6199096;23;20005;-83
2022/07/05 03:12:59;;;;;;;4.90;1.40;;;16.40;99.90;;;;;;6201008;23;20008;-87
2022/07/05 03:15:25;;;;;;;3.38;1.40;;;16.40;99.90;;;;;;6200866;23;20351;-88
2022/07/05 03:17:51;;;;;;;4.97;1.55;;;16.40;99.90;;;;;;6225362;23;20005;-89
2022/07/05 03:20:17;;;;;;;3.63;1.40;;;16.40;99.90;;;;;;6222872;23;20437;-88
2022/07/05 03:22:43;;;;;;;3.30;1.30;;;16.30;99.90;;;;;;6199985;23;20460;-89
2022/07/05 03:25:09;;;;;;;3.38;1.30;;;16.30;99.90;;;;;;6226088;23;20040;-86
2022/07/05 03:27:35;;;;;;;7.45;1.50;;;16.30;99.90;;;;;;6226625;23;20039;-87
2022/07/05 03:30:02;;;;;;;2.95;1.48;;;16.20;99.90;;;;;;6238045;23;20012;-85
2022/07/05 03:32:28;;;;;;;7.10;1.35;;;16.10;99.90;;;;;;6242174;23;19989;-87
2022/07/05 03:34:54;;;;;;;5.00;1.60;;;16.10;99.90;;;;;;6216167;23;20015;-86
2022/07/05 03:37:19;;;;;;;3.22;1.40;;;16.20;99.90;;;;;;6237848;23;20008;-83
2022/07/05 03:39:45;;;;;;;2.55;1.30;;;16.20;99.90;;;;;;6225692;23;20087;-84
2022/07/05 03:42:11;;;;;;;2.58;1.40;;;;;;;;;;6221356;23;20012;-85
2022/07/05 03:44:37;;;;;;;4.75;1.40;;;16.10;99.90;;;;;;6199545;23;20020;-86
2022/07/05 03:47:03;;;;;;;2.38;1.42;;;16.20;99.90;;;;;;6223662;23;20632;-88
2022/07/05 03:49:28;;;;;;;4.60;1.98;;;16.10;99.90;;;;;;6197804;23;20004;-86
2022/07/05 03:51:54;;;;;;;3.95;1.50;;;16.10;99.90;;;;;;6224752;23;20052;-87
2022/07/05 03:54:20;;;;;;;4.25;2.00;;;16.00;99.90;;;;;;6228227;23;20070;-87
2022/07/05 03:56:45;;;;;;;4.85;1.58;;;16.40;99.90;;;;;;6199766;23;20440;-85
2022/07/05 03:59:11;;;;;;;3.00;1.40;;;16.00;99.90;;;;;;6223085;23;20016;-91
2022/07/05 04:01:37;;;;;;;3.83;1.70;;;16.00;99.90;;;;;;6225360;23;20430;-84
2022/07/05 04:04:03;;;;;;;3.92;2.00;;;16.00;99.90;;;;;;6224047;23;20000;-89
2022/07/05 04:06:29;;;;;;;4.55;1.90;;;16.00;99.90;;;;;;6199014;23;20028;-85
2022/07/05 04:08:55;;;;;;;3.90;1.52;;;;;;;;;;6223821;23;20009;-89
2022/07/05 04:11:21;;;;;;;4.13;2.20;;;16.00;99.90;;;;;;6198765;23;20039;-87
2022/07/05 04:13:46;;;;;;;4.18;1.70;;;16.00;99.90;;;;;;6229022;23;20005;-88
2022/07/05 04:16:12;;;;;;;5.90;1.80;;;16.00;99.90;;;;;;6233973;23;19992;-85
2022/07/05 04:18:38;;;;;;;5.50;1.80;;;15.90;99.90;;;;;;6209833;23;20004;-87
2022/07/05 04:21:05;;;;;;;4.07;2.00;;;15.90;99.90;;;;;;6209248;23;20000;-86
2022/07/05 04:23:31;;;;;;;5.43;1.80;;;15.10;99.90;;;;;;6211917;23;20008;-89
2022/07/05 04:25:57;;;;;;;3.15;1.60;;;16.00;99.90;;;;;;6231284;23;20016;-90
2022/07/05 04:28:22;;;;;;;4.95;1.75;;;16.00;99.90;;;;;;6227876;23;20016;-85
2022/07/05 04:30:48;;;;;;;3.75;1.80;;;16.00;99.90;;;;;;6198263;23;20043;-87
2022/07/05 04:33:14;;;;;;;5.10;1.90;;;16.00;99.90;;;;;;6199005;23;20092;-88
2022/07/05 04:35:40;;;;;;;5.35;1.90;;;;;;;;;;6199393;23;20008;-90
2022/07/05 04:38:05;;;;;;;2.30;1.60;;;16.10;99.90;;;;;;6223933;23;20429;-87
2022/07/05 04:40:31;;;;;;;4.13;1.52;;;;;;;;;;6226469;23;20000;-88
2022/07/05 04:42:57;;;;;;;6.30;1.63;;;16.20;99.90;;;;;;6226080;23;20007;-88
2022/07/05 04:45:23;;;;;;;3.78;1.90;;;16.20;99.90;;;;;;6224393;23;20021;-85
2022/07/05 04:47:48;;;;;;;4.18;1.70;;;16.20;99.90;;;;;;6224576;23;20035;-88
2022/07/05 04:50:14;;;;;;;6.50;1.80;;;;;;;;;;6198825;23;20000;-86
2022/07/05 04:52:40;;;;;;;5.30;1.75;;;;;;;;;;6226291;23;20008;-86
2022/07/05 04:55:07;;;;;;;5.43;1.85;;;;;;;;;;6199855;23;20009;-87
2022/07/05 04:57:39;;;;;;;6.55;2.20;;;16.30;99.90;;;;;;6226504;23;20000;-89
2022/07/05 05:00:07;;;;;;;6.68;1.90;;;16.40;99.90;;;;;;6197501;23;20008;-87
2022/07/05 05:02:32;;;;;;;5.60;1.90;;;16.50;99.90;;;;;;6225510;23;20000;-86
2022/07/05 05:04:58;;;;;;;5.28;2.35;;;17.70;99.90;;;;;;6226272;23;20020;-84
2022/07/05 05:07:24;;;;;;;4.22;1.80;;;;;;;;;;6224183;23;20008;-85
2022/07/05 05:09:50;;;;;;;6.80;2.20;;;16.60;99.90;;;;;;6226865;23;20448;-83
2022/07/05 05:12:15;;;;;;;5.25;2.10;;;16.60;99.90;;;;;;6200569;23;20008;-84
2022/07/05 05:14:41;;;;;;;4.13;2.10;;;16.70;99.90;;;;;;6226869;23;20011;-87
2022/07/05 05:17:07;;;;;;;6.53;2.42;;;;;;;;;;6201377;23;20066;-87
2022/07/05 05:19:32;;;;;;;4.65;2.17;;;16.80;99.90;;;;;;6199586;23;20433;-87
2022/07/05 05:21:58;;;;;;;6.45;2.40;;;;;;;;;;6222776;23;19997;-83
2022/07/05 05:24:24;;;;;;;7.00;2.30;;;17.00;99.90;;;;;;6227908;23;20004;-83
2022/07/05 05:26:50;;;;;;;7.60;2.45;;;17.30;99.90;;;;;;6225584;23;20020;-84
2022/07/05 05:29:17;;;;;;;8.02;2.80;;;18.30;99.90;;;;;;6223959;23;20350;-83
2022/07/05 05:31:43;;;;;;;13.82;3.83;;;19.50;98.50;;;;;;6226958;23;20009;-85
2022/07/05 05:34:09;;;;;;;11.15;3.50;;;;;;;;;;6223897;23;20005;-83
2022/07/05 05:36:35;;;;;;;8.65;2.92;;;21.80;94.10;;;;;;6222814;23;20062;-83
2022/07/05 05:39:00;;;;;;;5.82;2.50;;;22.00;92.40;;;;;;6194597;23;20051;-82
2022/07/05 05:41:26;;;;;;;6.68;2.90;;;;;;;;;;6190023;23;20093;-84
2022/07/05 05:43:55;;;;;;;7.43;2.30;;;23.50;86.90;;;;;;6222200;23;20015;-81
2022/07/05 05:46:20;;;;;;;14.57;2.67;;;23.40;87.60;;;;;;6218204;23;20005;-81
2022/07/05 05:48:46;;;;;;;13.98;2.90;;;23.80;86.70;;;;;;6214605;23;20563;-80
2022/07/05 05:51:11;;;;;;;6.18;2.42;;;23.50;85.50;;;;;;6186071;23;20040;-82
2022/07/05 05:53:37;;;;;;;8.25;2.60;;;23.90;85.00;;;;;;6213838;23;20012;-80
2022/07/05 05:56:03;;;;;;;7.53;2.63;;;23.70;83.90;;;;;;6188480;23;20005;-82
2022/07/05 05:58:29;;;;;;;7.03;2.50;;;23.70;83.30;;;;;;6216016;23;20051;-83
2022/07/05 06:00:54;;;;;;;6.40;2.45;;;23.90;83.10;;;;;;6216616;23;20000;-81
2022/07/05 06:03:23;;;;;;;7.10;2.60;;;25.30;79.40;;;;;;6215710;23;20424;-81
2022/07/05 06:05:49;;;;;;;8.45;3.00;;;25.60;77.30;;;;;;6216695;23;20047;-79
2022/07/05 06:08:15;;;;;;;7.28;2.60;;;24.90;78.10;;;;;;6218980;23;20027;-81
2022/07/05 06:10:41;;;;;;;10.77;3.25;;;25.50;78.20;;;;;;6215966;23;20023;-80
2022/07/05 06:13:09;;;;;;;8.65;3.22;;;25.50;76.40;;;;;;6214387;23;20024;-81
2022/07/05 06:15:35;;;;;;;8.63;3.30;;;25.70;77.10;;;;;;6217784;23;19997;-84
2022/07/05 06:18:01;;;;;;;8.23;3.35;;;25.60;76.20;;;;;;6220061;23;20004;-83
2022/07/05 06:20:32;;;;;;;11.57;3.05;;;25.10;76.60;;;;;;6221058;23;20001;-82
2022/07/05 06:22:59;;;;;;;10.13;2.70;;;24.20;77.00;;;;;;6192844;23;20001;-83
2022/07/05 06:25:25;;;;;;;9.90;2.95;;;24.10;77.60;;;;;;6217661;23;20008;-83
2022/07/05 06:27:56;;;;;;;10.30;3.00;;;23.80;78.00;;;;;;6195510;23;20004;-83
2022/07/05 06:30:24;;;;;;;10.13;3.20;;;23.70;78.60;;;;;;6219577;23;20005;-84
2022/07/05 06:32:51;;;;;;;8.10;2.83;;;23.60;78.50;;;;;;6217789;23;20034;-83
2022/07/05 06:35:17;;;;;;;6.70;3.30;;;;;;;;;;6221562;23;20020;-82
2022/07/05 06:37:47;;;;;;;6.07;2.70;;;23.70;79.20;;;;;;6193459;23;20048;-84
2022/07/05 06:40:24;;;;;;;6.43;2.47;;;23.60;79.60;;;;;;6192613;23;20348;-82
2022/07/05 06:42:51;;;;;;;7.95;3.10;;;23.00;80.20;;;;;;6221668;23;20005;-88
2022/07/05 06:45:17;;;;;;;6.53;2.55;;;22.80;80.70;;;;;;6227196;23;20001;-86
2022/07/05 06:47:43;;;;;;;9.90;2.75;;;22.80;81.30;;;;;;6230123;23;19997;-86
2022/07/05 06:50:10;;;;;;;9.82;2.75;;;23.00;81.30;;;;;;6197098;23;20024;-87
2022/07/05 06:52:36;;;;;;;7.32;2.60;;;23.10;80.60;;;;;;6199356;23;20015;-85
2022/07/05 06:55:03;;;;;;;10.63;2.72;;;23.20;81.10;;;;;;6222141;23;20008;-86
2022/07/05 06:57:29;;;;;;;8.55;2.13;;;;;;;;;;6223007;23;20006;-86
2022/07/05 06:59:56;;;;;;;10.68;2.75;;;;;;;;;;6222798;23;20023;-88
2022/07/05 07:02:22;;;;;;;9.20;3.00;;;;;;;;;;6222852;23;20364;-82
2022/07/05 07:04:49;;;;;;;6.28;2.10;;;;;;;;;;6222947;23;20009;-86
2022/07/05 07:10:01;;;;;;;7.20;2.60;;;22.30;83.30;;;;;;6202225;23;20471;-85
2022/07/05 07:12:27;;;;;;;8.55;2.65;;;22.30;82.30;;;;;;6222342;23;20017;-85
2022/07/05 07:14:53;;;;;;;8.77;2.08;;;;;;;;;;6222253;23;20005;-86
2022/07/05 07:17:19;;;;;;;6.50;1.90;;;22.00;82.70;;;;;;6196934;23;20031;-87
2022/07/05 07:19:45;;;;;;;9.43;2.05;;;;;;;;;;6196024;23;20030;-86
2022/07/05 07:22:11;;;;;;;4.80;1.80;;;;;;;;;;6223302;23;19996;-86
2022/07/05 07:24:37;;;;;;;4.25;1.77;;;;;;;;;;6224357;23;20001;-83
2022/07/05 07:27:03;;;;;;;5.13;2.42;;;;;;;;;;6223738;23;20031;-86
2022/07/05 07:29:33;;;;;;;6.13;1.60;;;22.70;81.70;;;;;;6222978;23;20019;-84
2022/07/05 07:32:00;;;;;;;5.35;1.67;;;22.90;80.30;;;;;;6223466;23;20030;-88
2022/07/05 07:34:27;;;;;;;6.35;1.75;;;22.90;80.40;;;;;;6194627;23;20012;-88
2022/07/05 07:36:54;;;;;;;6.82;1.63;;;;;;;;;;6223315;23;20059;-87
2022/07/05 07:39:20;;;;;;;4.32;1.85;;;22.70;80.10;;;;;;6223929;23;19996;-86
2022/07/05 07:41:46;;;;;;;4.78;1.50;;;;;;;;;;6225049;23;20023;-85
2022/07/05 07:44:12;;;;;;;3.88;1.80;;;22.80;80.00;;;;;;6197730;23;20111;-86
2022/07/05 07:46:41;;;;;;;7.97;1.67;;;22.70;80.50;;;;;;6220280;23;20000;-85
2022/07/05 07:49:07;;;;;;;4.35;1.88;;;22.80;80.60;;;;;;6217185;23;20419;-89
2022/07/05 07:51:33;;;;;;;6.28;1.67;;;23.00;80.50;;;;;;6192344;23;20008;-88
2022/07/05 07:53:59;;;;;;;6.80;1.90;;;;;;;;;;6221419;23;20004;-88
2022/07/05 07:56:25;;;;;;;8.38;1.75;;;;;;;;;;6220280;23;20023;-87
2022/07/05 07:58:52;;;;;;;10.82;2.17;;;;;;;;;;6222548;23;20012;-86
2022/07/05 08:01:18;;;;;;;4.45;1.83;;;;;;;;;;6223187;23;20011;-88
2022/07/05 08:03:44;;;;;;;5.65;1.65;;;23.50;77.60;;;;;;6222373;23;20007;-86
2022/07/05 08:06:11;;;;;;;7.35;2.00;;;24.20;78.10;;;;;;6224125;23;20004;-85
2022/07/05 08:08:41;;;;;;;5.40;1.70;;;23.80;77.50;;;;;;6224993;23;20000;-87
2022/07/05 08:11:09;;;;;;;4.40;1.60;;;24.00;73.90;;;;;;6196232;23;20028;-86
2022/07/05 08:13:35;;;;;;;6.70;1.60;;;24.00;73.60;;;;;;6195584;23;20059;-87
2022/07/05 08:16:01;;;;;;;16.27;1.90;;;;;;;;;;6194658;23;20444;-87
2022/07/05 08:24:07;;;;;;;3.25;1.50;;;24.10;74.40;;;;;;6232123;23;20075;-85
2022/07/05 08:26:33;;;;;;;4.88;1.52;;;24.20;73.90;;;;;;6202161;23;20055;-85
2022/07/05 08:29:03;;;;;;;5.07;1.80;;;24.30;73.70;;;;;;6202428;23;20008;-84
2022/07/05 08:31:32;;;;;;;6.95;1.30;;;24.40;73.00;;;;;;6201687;23;20004;-85
2022/07/05 08:33:58;;;;;;;2.88;1.20;;;;;;;;;;6203686;23;20004;-84
2022/07/05 08:36:24;;;;;;;2.75;1.20;;;;;;;;;;6231230;23;20020;-87
2022/07/05 08:38:50;;;;;;;1.90;1.00;;;;;;;;;;6220347;23;20032;-85
2022/07/05 08:41:19;;;;;;;2.50;1.23;;;24.60;70.80;;;;;;6194057;23;20062;-88
2022/07/05 08:43:46;;;;;;;4.75;1.10;;;24.70;71.00;;;;;;6221805;23;20009;-86
2022/07/05 08:46:14;;;;;;;5.13;1.60;;;24.90;70.50;;;;;;6202125;23;20012;-89
2022/07/05 08:48:42;;;;;;;9.60;1.40;;;;;;;;;;6207025;23;20072;-86
2022/07/05 08:51:16;;;;;;;6.30;1.90;;;25.10;70.30;;;;;;6232819;23;19985;-86
2022/07/05 08:53:44;;;;;;;4.00;1.25;;;25.30;70.00;;;;;;6210870;23;20017;-89
2022/07/05 08:56:10;;;;;;;3.60;1.25;;;;;;;;;;6232833;23;20020;-88
2022/07/05 08:58:36;;;;;;;5.13;1.42;;;25.40;68.30;;;;;;6237113;23;20004;-89
2022/07/05 09:01:03;;;;;;;4.15;1.33;;;25.40;68.80;;;;;;6232664;23;20032;-90
2022/07/05 09:03:34;;;;;;;2.67;1.13;;;25.40;69.30;;;;;;6234665;23;20011;-90
2022/07/05 09:06:04;;;;;;;3.00;1.02;;;25.50;67.90;;;;;;6208496;23;20020;-90
2022/07/05 09:08:32;;;;;;;;;;;25.50;68.50;;;;;;6234005;23;20048;-88
2022/07/05 09:10:58;;;;;;;4.97;1.67;;;;;;;;;;6206001;23;19927;-89
2022/07/05 09:13:24;;;;;;;7.43;1.60;;;;;;;;;;6232259;23;20099;-89
2022/07/05 09:15:50;;;;;;;5.80;1.70;;;;;;;;;;6232717;23;20320;-89
2022/07/05 09:18:38;;;;;;;4.78;1.13;;;25.50;66.20;;;;;;6233078;23;20055;-87
2022/07/05 09:21:19;;;;;;;3.58;1.40;;;25.60;65.50;;;;;;6229944;23;19997;-90
2022/07/05 09:23:54;;;;;;;4.40;1.50;;;25.80;66.00;;;;;;6231763;23;20008;-87
2022/07/05 09:26:20;;;;;;;4.75;1.67;;;;;;;;;;6208585;23;20076;-86
2022/07/05 09:28:57;;;;;;;3.55;1.40;;;25.90;65.60;;;;;;6232848;23;20357;-85
2022/07/05 09:31:33;;;;;;;4.47;1.10;;;26.10;65.40;;;;;;6203779;23;20064;-87
2022/07/05 09:34:10;;;;;;;5.40;1.42;;;26.10;64.50;;;;;;6229782;23;20004;-89
2022/07/05 09:36:55;;;;;;;4.80;1.20;;;26.20;63.40;;;;;;6229774;23;20001;-89
2022/07/05 09:39:29;;;;;;;8.32;1.60;;;26.10;63.70;;;;;;6230123;23;20001;-86
2022/07/05 09:42:13;;;;;;;3.67;1.25;;;26.10;63.50;;;;;;6230348;23;20004;-89
2022/07/05 09:44:44;;;;;;;3.70;1.30;;;26.20;62.20;;;;;;6208362;23;19988;-85
2022/07/05 09:47:12;;;;;;;2.28;1.10;;;26.20;62.50;;;;;;6215188;23;20001;-83
2022/07/05 09:49:49;;;;;;;4.68;1.20;;;26.40;62.70;;;;;;6214841;23;20020;-84
2022/07/05 09:52:37;;;;;;;2.05;1.10;;;26.40;62.70;;;;;;6215393;23;19993;-88
2022/07/05 09:55:11;;;;;;;3.28;1.50;;;26.50;62.40;;;;;;6212691;23;20008;-85
2022/07/05 09:57:41;;;;;;;6.75;1.40;;;26.70;62.60;;;;;;6200389;23;20012;-86
2022/07/05 10:00:10;;;;;;;5.20;1.45;;;26.80;62.70;;;;;;6202317;23;20080;-87
2022/07/05 10:02:38;;;;;;;4.15;1.45;;;27.00;61.50;;;;;;6227177;23;20032;-85
2022/07/05 10:05:16;;;;;;;6.30;1.75;;;27.00;61.90;;;;;;6177311;23;20009;-87
2022/07/05 10:07:50;;;;;;;4.18;1.20;;;27.00;61.90;;;;;;6226647;23;20016;-82
2022/07/05 10:10:18;;;;;;;3.00;1.20;;;27.00;61.50;;;;;;6226903;23;20023;-82
2022/07/05 10:12:45;;;;;;;5.90;1.27;;;;;;;;;;6230649;23;19997;-82
2022/07/05 10:15:13;;;;;;;2.45;1.10;;;27.10;58.90;;;;;;6227342;23;20340;-84
2022/07/05 10:17:54;;;;;;;5.00;1.10;;;27.20;58.00;;;;;;6226164;23;20004;-81
2022/07/05 10:20:26;;;;;;;2.97;1.08;;;;;;;;;;6228234;23;20113;-84
2022/07/05 10:22:52;;;;;;;2.15;1.05;;;;;;;;;;6203486;23;20011;-83
2022/07/05 10:25:19;;;;;;;2.47;1.30;;;;;;;;;;6239935;23;20000;-81
2022/07/05 10:27:45;;;;;;;3.53;1.58;;;27.20;58.00;;;;;;6242292;23;20015;-82
2022/07/05 10:30:12;;;;;;;1.77;1.00;;;27.20;57.30;;;;;;6239912;23;20023;-82
2022/07/05 10:32:38;;;;;;;2.08;0.90;;;27.00;57.20;;;;;;6238524;23;20015;-80
2022/07/05 10:35:05;;;;;;;4.32;1.30;;;27.20;57.30;;;;;;6236000;23;20024;-85
2022/07/05 10:37:34;;;;;;;2.92;0.93;;;27.40;58.00;;;;;;6229087;23;20000;-82
2022/07/05 10:40:01;;;;;;;2.47;1.30;;;27.60;57.60;;;;;;6227682;23;20000;-84
2022/07/05 10:42:33;;;;;;;2.60;1.20;;;27.60;56.90;;;;;;6228206;23;20000;-85
2022/07/05 10:44:59;;;;;;;3.78;2.03;;;;;;;;;;6230207;23;20329;-81
2022/07/05 10:47:25;;;;;;;3.15;1.25;;;27.70;57.10;;;;;;6203698;23;20004;-83
2022/07/05 10:50:04;;;;;;;2.65;1.50;;;27.60;56.90;;;;;;6231069;23;20008;-84
2022/07/05 10:52:30;;;;;;;2.25;1.13;;;27.60;55.80;;;;;;6231258;23;20016;-85
2022/07/05 10:55:17;;;;;;;3.50;1.15;;;27.60;56.50;;;;;;6231267;23;20382;-83
2022/07/05 10:57:43;;;;;;;3.28;1.00;;;27.70;56.90;;;;;;6227193;23;20031;-84
2022/07/05 11:00:10;;;;;;;6.43;1.60;;;27.70;56.80;;;;;;6200999;23;20005;-86
2022/07/05 11:02:37;;;;;;;4.63;1.42;;;27.80;56.80;;;;;;6228522;23;20004;-85
2022/07/05 11:05:03;;;;;;;3.13;1.08;;;27.90;57.00;;;;;;6200286;23;20016;-88
2022/07/05 11:07:58;;;;;;;2.70;1.08;;;27.80;53.50;;;;;;6208347;23;20311;-84
2022/07/05 11:10:24;;;;;;;6.00;1.38;;;;;;;;;;6213538;23;20035;-86
2022/07/05 11:12:50;;;;;;;3.03;1.02;;;;;;;;;;6236882;23;20005;-88
2022/07/05 11:15:16;;;;;;;4.80;2.47;;;;;;;;;;6211543;23;20072;-87
2022/07/05 11:17:43;;;;;;;3.45;1.50;;;;;;;;;;6237243;23;20004;-84
2022/07/05 11:20:12;;;;;;;3.58;1.30;;;28.00;52.90;;;;;;6238279;23;20023;-84
2022/07/05 11:22:41;;;;;;;5.88;1.48;;;28.10;53.90;;;;;;6210475;23;20008;-85
2022/07/05 11:25:10;;;;;;;3.00;1.02;;;28.10;54.30;;;;;;6187070;23;20028;-85
2022/07/05 11:28:05;;;;;;;3.58;1.13;;;28.10;53.40;;;;;;6238675;23;20052;-84
2022/07/05 11:30:50;;;;;;;3.38;1.10;;;28.20;52.90;;;;;;6235857;23;20044;-85
2022/07/05 11:33:34;;;;;;;4.20;1.10;;;;;;;;;;6212153;23;20104;-86
2022/07/05 11:36:01;;;;;;;3.53;1.05;;;28.40;52.40;;;;;;6212008;23;20009;-86
2022/07/05 11:38:27;;;;;;;2.70;0.90;;;28.40;52.50;;;;;;6212155;23;20007;-87
2022/07/05 11:40:56;;;;;;;4.85;1.50;;;28.40;51.40;;;;;;6237623;23;20025;-82
2022/07/05 11:43:27;;;;;;;1.65;1.10;;;28.40;52.10;;;;;;6187342;23;20012;-85
2022/07/05 11:45:59;;;;;;;4.70;3.15;;;28.10;51.00;;;;;;6211982;23;20016;-87
2022/07/05 11:48:27;;;;;;;3.58;1.23;;;28.10;51.70;;;;;;6238864;23;19989;-88
2022/07/05 11:50:53;;;;;;;3.10;1.13;;;;;;;;;;6237114;23;20012;-86
2022/07/05 11:53:42;;;;;;;3.72;1.40;;;28.20;51.80;;;;;;6238259;23;20013;-84
2022/07/05 11:56:10;;;;;;;5.22;1.73;;;28.40;52.10;;;;;;6214382;23;19997;-82
2022/07/05 11:58:36;;;;;;;3.55;1.75;;;;;;;;;;6241326;23;19992;-83
2022/07/05 12:01:06;;;;;;;3.92;1.30;;;;;;;;;;6239381;23;20016;-83
2022/07/05 12:03:31;;;;;;;4.57;1.17;;;28.50;51.90;;;;;;6212714;23;19992;-83
2022/07/05 12:06:00;;;;;;;1.63;1.00;;;;;;;;;;6239973;23;19993;-84
2022/07/05 12:08:26;;;;;;;4.77;1.40;;;;;;;;;;6214071;23;20015;-81
2022/07/05 12:13:47;;;;;;;3.03;1.20;;;28.80;52.10;;;;;;6240678;23;20015;-82
2022/07/05 12:16:13;;;;;;;1.45;0.80;;;28.90;51.90;;;;;;6241534;23;19988;-82
2022/07/05 12:18:54;;;;;;;1.80;0.82;;;28.80;50.60;;;;;;6241894;23;19989;-82
2022/07/05 12:21:20;;;;;;;1.13;0.80;;;;;;;;;;6214355;23;19993;-82
2022/07/05 12:23:46;;;;;;;1.85;1.10;;;;;;;;;;6214856;23;20070;-84
2022/07/05 12:26:13;;;;;;;6.03;1.02;;;;;;;;;;6214471;23;20052;-83
2022/07/05 12:28:39;;;;;;;6.82;1.20;;;;;;;;;;6215486;23;19996;-84
2022/07/05 12:31:22;;;;;;;3.03;1.40;;;28.90;50.10;;;;;;6214009;23;20020;-81
2022/07/05 12:33:48;;;;;;;2.50;1.30;;;;;;;;;;6216414;23;20008;-83
2022/07/05 12:36:41;;;;;;;2.63;0.93;;;28.90;49.20;;;;;;6242010;23;20013;-83
2022/07/05 12:39:07;;;;;;;4.50;1.52;;;28.90;49.50;;;;;;6214687;23;19992;-82
2022/07/05 12:41:33;;;;;;;2.25;1.30;;;;;;;;;;6241136;23;19993;-80
2022/07/05 12:44:01;;;;;;;2.08;1.17;;;;;;;;;;6242099;23;20007;-82
2022/07/05 12:46:40;;;;;;;3.70;1.50;;;29.20;49.40;;;;;;6241292;23;20044;-82
2022/07/05 12:49:06;;;;;;;4.53;1.25;;;29.00;48.70;;;;;;6239719;23;20027;-81
2022/07/05 12:51:33;;;;;;;2.58;1.33;;;29.10;48.60;;;;;;6241226;23;20013;-81
2022/07/05 12:59:36;;;;;;;3.53;1.35;;;;;;;;;;6239307;23;20028;-81
2022/07/05 13:02:04;;;;;;;2.35;1.25;;;29.10;50.30;;;;;;6241954;23;20012;-82
2022/07/05 13:04:30;;;;;;;5.07;1.40;;;29.20;49.50;;;;;;6216151;23;20068;-82
2022/07/05 13:07:00;;;;;;;4.57;1.30;;;29.20;49.50;;;;;;6240867;23;19989;-83
2022/07/05 13:09:32;;;;;;;4.40;1.13;;;29.20;50.00;;;;;;6240989;23;20005;-82
2022/07/05 13:12:07;;;;;;;3.17;0.90;;;29.30;49.60;;;;;;6241083;23;20019;-85
2022/07/05 13:14:33;;;;;;;2.55;1.30;;;;;;;;;;6240368;23;20008;-84
2022/07/05 13:16:59;;;;;;;2.03;1.00;;;29.10;49.20;;;;;;6241219;23;19997;-85
2022/07/05 13:19:25;;;;;;;3.72;1.20;;;29.30;50.20;;;;;;6237485;23;20015;-84
2022/07/05 13:21:51;;;;;;;2.60;1.00;;;;;;;;;;6185582;23;20008;-84
2022/07/05 13:24:16;;;;;;;3.85;1.73;;;28.80;50.60;;;;;;6213395;23;20008;-85
2022/07/05 13:26:42;;;;;;;4.35;1.10;;;;;;;;;;6238858;23;20031;-83
2022/07/05 13:29:08;;;;;;;3.38;1.10;;;28.70;51.10;;;;;;6210746;23;19997;-80